Skip Navigation Links
NOAA logo - Click to go to the NOAA homepage
NOAA's National Weather Service
Alaska Aviation Weather Unit
  NWS logo - Click to go to the NWS homepage
Left Navbar Graphic     15 AKDT = 23 GMT

   
NOAA is celebrating 200 years of science, service, and stewardship. Visit the NOAA 200th celebration Web site to learn more.
USA.gov is the U.S. Government's official Web portal to all Federal, state and local government Web resources and services.
Facebook
NWS on Facebook

Important Change Regarding the AAWU Web Presence

 

Over the last several months, the AAWU has been working to navigate its webpages to a nationally supported server. Security, as well as other needs, have necessitated the change.  We have been given an extension for the site changeover while we diligently work at addressing feedback received. As of July 14, 2017, aawu.arh.noaa.gov will be discontinued. The new AAWU web address is weather.gov/aawu. It is now live and will run in-parallel with the old site until it is discontinued on July 14, 2017. Please continue to send any feedback or questions regarding the new webpages to nws.ar.aawu.webauthors@noaa.gov.  Thank you for your patience during this time of transition.
AAWU Home :: Display TAF Add Bookmark
TAF PAJN 192327Z 2000/2024  VRB04KT 6SM -SHRA BKN035 OVC050
     FM200300 10005KT P6SM VCSH BKN050 BKN080
     FM200900 10006KT 5SM -SHRA BR BKN025 OVC040
     FM201800 12010KT P6SM -SHRA OVC025=


METAR PAJN 191753Z 00000KT 8SM -RA BKN038 OVC050 03/03 A2897=

METAR PAJN 191853Z 00000KT 7SM -RA BKN035 OVC044 04/04 A2898=

PAJN 191949Z 00000KT 5SM -RA BR FEW004 BKN025 OVC034 04/04 A2900=

SPECI PAJN 191949Z 00000KT 5SM -RA BR FEW004 BKN025 OVC034 04/04 A2900
     RMK AO2 P0008=

METAR PAJN 191953Z 00000KT 5SM -RA BR FEW003 BKN025 OVC034 04/04
     A2900=

PAJN 192019Z 00000KT 6SM -RA BR FEW003 BKN031 OVC040 04/04 A2901=

SPECI PAJN 192019Z 00000KT 6SM -RA BR FEW003 BKN031 OVC040 04/04
 A2901 RMK AO2 P0002 T00440044=

METAR PAJN 192053Z 00000KT 6SM -RA BR FEW004 BKN036 OVC043 04/04
     A2901=

METAR PAJN 192153Z 00000KT 6SM -RA BR FEW006 BKN034 OVC042 05/04
     A2903=

METAR PAJN 192253Z 00000KT 8SM -RA FEW013 BKN031 OVC040 04/04 A2904=

PAJN 192330Z 00000KT 8SM -RA FEW007 BKN031 OVC040 05/04 A2905=

SPECI PAJN 192330Z 00000KT 8SM -RA FEW007 BKN031 OVC040 05/04 A2905 RMK
     AO2 P0002 T00500044=


NOAA's National Weather Service
Alaska Aviation Weather Unit
6930 Sand Lake Road
Anchorage, AK 99502-1845
Disclaimer
Credits
Glossary
Privacy Policy
About Us
Career Opportunities
Contact AAWU Internet Services Site last modified: April, 17th 2012